createdAt,value
2024-02-19T00:02:01.249Z,100063.09
2024-02-19T00:05:07.498Z,100060.88
2024-02-19T00:08:11.497Z,100060.22
2024-02-19T00:11:16.066Z,100069.22
2024-02-19T00:14:19.886Z,100065.91
2024-02-19T00:17:23.566Z,100068.78
2024-02-19T00:20:29.662Z,100072.53
2024-02-19T00:23:37.040Z,100079.47
2024-02-19T00:26:40.813Z,100064.03
2024-02-19T00:29:46.101Z,100079.09
2024-02-19T00:32:50.039Z,100081.16
2024-02-19T00:35:55.532Z,100080.22
2024-02-19T00:38:59.076Z,100082.38
2024-02-19T00:42:03.241Z,100086.28
2024-02-19T00:45:08.773Z,100084.75
2024-02-19T00:48:13.089Z,100083.41
2024-02-19T00:51:18.194Z,100087.50
2024-02-19T00:54:21.841Z,100090.38
2024-02-19T00:57:25.495Z,100098.78
2024-02-19T01:00:29.148Z,100093.97
2024-02-19T01:03:32.839Z,100104.81
2024-02-19T01:06:37.928Z,100110.72
2024-02-19T01:09:41.625Z,100103.66
2024-02-19T01:12:45.228Z,100104.13
2024-02-19T01:15:48.962Z,100113.63
2024-02-19T01:18:53.228Z,100114.50
2024-02-19T01:21:58.605Z,100119.41
2024-02-19T01:25:02.479Z,100114.31
2024-02-19T01:28:08.657Z,100116.34
2024-02-19T01:31:12.393Z,100110.00
2024-02-19T01:34:17.481Z,100120.56
2024-02-19T01:37:22.984Z,100120.63
2024-02-19T01:40:26.673Z,100125.53
2024-02-19T01:43:30.310Z,100129.31
2024-02-19T01:46:35.168Z,100120.19
2024-02-19T01:49:39.716Z,100125.69
2024-02-19T01:52:46.012Z,100128.44
2024-02-19T01:55:50.749Z,100124.38
2024-02-19T01:58:55.315Z,100133.91
2024-02-19T02:01:59.036Z,100126.56
2024-02-19T02:05:03.499Z,100138.19
2024-02-19T02:08:09.233Z,100138.06
2024-02-19T02:11:13.363Z,100139.19
2024-02-19T02:14:20.938Z,100134.50
2024-02-19T02:17:25.040Z,100132.19
2024-02-19T02:20:28.784Z,100134.22
2024-02-19T02:23:35.480Z,100130.06
2024-02-19T02:26:42.393Z,100141.16
2024-02-19T02:29:46.427Z,100134.56
2024-02-19T02:32:54.594Z,100137.72
2024-02-19T02:35:58.400Z,100133.13
2024-02-19T02:39:02.646Z,100144.94
2024-02-19T02:42:08.583Z,100138.09
2024-02-19T02:45:12.962Z,100140.38
2024-02-19T02:48:16.918Z,100141.50
2024-02-19T02:51:22.005Z,100143.41
2024-02-19T02:54:25.629Z,100147.84
2024-02-19T02:57:30.759Z,100145.31
2024-02-19T03:00:44.427Z,100149.69
2024-02-19T03:03:49.138Z,100140.53
2024-02-19T03:06:53.209Z,100152.84
2024-02-19T03:10:00.606Z,100140.81
2024-02-19T03:13:06.533Z,100147.69
2024-02-19T03:16:10.560Z,100152.84
2024-02-19T03:20:10.928Z,100159.72
2024-02-19T03:27:31.811Z,100169.34
2024-02-19T03:30:35.564Z,100160.19
2024-02-19T03:33:40.051Z,100161.50
2024-02-19T03:36:47.544Z,100177.34
2024-02-19T03:39:51.288Z,100177.34
2024-02-19T03:42:56.818Z,100178.19
2024-02-19T03:46:02.210Z,100188.75
2024-02-19T03:49:06.211Z,100184.41
2024-02-19T03:52:10.030Z,100195.69
2024-02-19T03:55:13.851Z,100195.84
2024-02-19T03:58:19.154Z,100209.28
2024-02-19T04:01:22.913Z,100202.25
2024-02-19T04:04:26.617Z,100219.69
2024-02-19T04:07:30.259Z,100215.03
2024-02-19T04:10:33.937Z,100226.00
2024-02-19T04:13:39.046Z,100230.41
2024-02-19T04:16:44.348Z,100235.44
2024-02-19T04:19:48.950Z,100228.78
2024-02-19T04:22:55.662Z,100234.63
2024-02-19T04:25:59.800Z,100238.34
2024-02-19T04:29:05.084Z,100237.19
2024-02-19T04:32:08.703Z,100241.72
2024-02-19T04:35:12.810Z,100248.00
2024-02-19T04:38:16.737Z,100251.03
2024-02-19T04:41:20.464Z,100247.16
2024-02-19T04:44:25.568Z,100261.84
2024-02-19T04:47:29.232Z,100257.75
2024-02-19T04:50:32.875Z,100258.69
2024-02-19T04:53:36.480Z,100261.06
2024-02-19T04:56:40.080Z,100260.19
2024-02-19T04:59:45.277Z,100255.88
2024-02-19T05:02:49.444Z,100269.56
2024-02-19T05:05:53.146Z,100270.91
2024-02-19T05:08:56.949Z,100268.84
2024-02-19T05:12:00.807Z,100268.50
2024-02-19T05:15:06.963Z,100272.50
2024-02-19T05:18:10.746Z,100274.44
2024-02-19T05:21:15.313Z,100275.41
2024-02-19T05:24:19.414Z,100283.03
2024-02-19T05:27:25.316Z,100282.38
2024-02-19T05:30:31.425Z,100287.59
2024-02-19T05:33:35.243Z,100291.13
2024-02-19T05:36:39.495Z,100284.63
2024-02-19T05:39:43.539Z,100287.56
2024-02-19T05:42:47.638Z,100279.84
2024-02-19T05:45:54.332Z,100287.84
2024-02-19T05:48:58.118Z,100296.78
2024-02-19T05:52:01.878Z,100301.94
2024-02-19T05:55:06.268Z,100302.25
2024-02-19T05:58:10.014Z,100307.44
2024-02-19T06:01:15.247Z,100310.78
2024-02-19T06:04:19.086Z,100301.84
2024-02-19T06:07:22.744Z,100306.19
2024-02-19T06:10:27.626Z,100305.94
2024-02-19T06:13:31.507Z,100297.59
2024-02-19T06:16:36.613Z,100306.41
2024-02-19T06:19:42.442Z,100310.84
2024-02-19T06:22:46.464Z,100318.78
2024-02-19T06:25:50.092Z,100331.63
2024-02-19T06:28:53.745Z,100322.34
2024-02-19T06:31:58.831Z,100332.31
2024-02-19T06:35:02.682Z,100336.03
2024-02-19T06:38:07.271Z,100331.19
2024-02-19T06:41:10.861Z,100344.16
2024-02-19T06:44:14.704Z,100336.97
2024-02-19T06:47:19.901Z,100338.34
2024-02-19T06:50:23.684Z,100345.06
2024-02-19T06:53:33.151Z,100353.91
2024-02-19T06:56:37.090Z,100354.94
2024-02-19T06:59:40.710Z,100347.00
2024-02-19T07:02:45.776Z,100353.72
2024-02-19T07:05:49.421Z,100365.78
2024-02-19T07:08:53.140Z,100362.16
2024-02-19T07:11:56.862Z,100368.44
2024-02-19T07:15:00.866Z,100364.81
2024-02-19T07:18:07.408Z,100369.31
2024-02-19T07:21:11.630Z,100368.00
2024-02-19T07:24:15.484Z,100366.25
2024-02-19T07:27:19.301Z,100372.78
2024-02-19T07:30:22.972Z,100374.84
2024-02-19T07:33:29.983Z,100374.41
2024-02-19T07:36:33.830Z,100370.34
2024-02-19T07:39:40.614Z,100376.66
2024-02-19T07:42:44.423Z,100369.56
2024-02-19T07:45:48.284Z,100382.25
2024-02-19T07:48:53.458Z,100371.63
2024-02-19T07:51:57.301Z,100376.22
2024-02-19T07:55:01.059Z,100373.41
2024-02-19T07:58:04.910Z,100370.69
2024-02-19T08:01:09.055Z,100375.22
2024-02-19T08:04:14.246Z,100376.00
2024-02-19T08:07:18.049Z,100365.53
2024-02-19T08:10:21.841Z,100377.91
2024-02-19T08:13:26.035Z,100375.78
2024-02-19T08:16:30.037Z,100377.44
2024-02-19T08:19:35.929Z,100381.13
2024-02-19T08:22:40.117Z,100389.75
2024-02-19T08:25:44.858Z,100400.56
2024-02-19T08:28:51.801Z,100394.41
2024-02-19T08:31:55.556Z,100388.66
2024-02-19T08:35:00.688Z,100394.47
2024-02-19T08:38:05.698Z,100398.25
2024-02-19T08:41:09.337Z,100411.28
2024-02-19T08:44:13.028Z,100407.63
2024-02-19T08:47:16.791Z,100407.47
2024-02-19T08:50:21.936Z,100402.50
2024-02-19T08:53:25.660Z,100397.41
2024-02-19T08:56:29.395Z,100404.41
2024-02-19T08:59:33.031Z,100410.75
2024-02-19T09:02:37.451Z,100409.56
2024-02-19T09:05:42.495Z,100419.03
2024-02-19T09:08:47.622Z,100418.53
2024-02-19T09:11:51.743Z,100408.84
2024-02-19T09:14:56.527Z,100421.69
2024-02-19T09:18:00.400Z,100422.41
2024-02-19T09:21:06.952Z,100415.91
2024-02-19T09:24:10.703Z,100431.00
2024-02-19T09:27:15.441Z,100433.84
2024-02-19T09:30:19.648Z,100429.66
2024-02-19T09:33:23.379Z,100429.91
2024-02-19T09:36:28.617Z,100432.34
2024-02-19T09:39:32.777Z,100430.97
2024-02-19T09:42:37.607Z,100435.38
2024-02-19T09:45:44.494Z,100437.00
2024-02-19T09:48:52.654Z,100442.03
2024-02-19T09:52:04.100Z,100442.72
2024-02-19T09:55:10.679Z,100445.69
2024-02-19T09:58:14.317Z,100451.19
2024-02-19T10:01:18.523Z,100435.75
2024-02-19T10:04:22.712Z,100434.50
2024-02-19T10:07:28.043Z,100434.94
2024-02-19T10:10:39.353Z,100438.78
2024-02-19T10:13:52.649Z,100442.75
2024-02-19T10:17:23.545Z,100440.09
2024-02-19T10:20:30.421Z,100437.34
2024-02-19T10:23:35.527Z,100439.56
2024-02-19T10:26:39.206Z,100451.44
2024-02-19T10:29:42.919Z,100442.97
2024-02-19T10:32:47.767Z,100435.88
2024-02-19T10:35:51.767Z,100436.81
2024-02-19T10:38:56.911Z,100437.78
2024-02-19T10:42:00.724Z,100433.63
2024-02-19T10:45:04.733Z,100434.00
2024-02-19T10:48:10.127Z,100435.44
2024-02-19T10:51:18.985Z,100437.78
2024-02-19T10:54:24.085Z,100429.34
2024-02-19T10:57:31.603Z,100428.84
2024-02-19T11:00:35.606Z,100425.31
2024-02-19T11:03:46.850Z,100426.75
2024-02-19T11:06:52.392Z,100427.47
2024-02-19T11:09:59.666Z,100422.88
2024-02-19T11:13:07.963Z,100428.06
2024-02-19T11:16:18.844Z,100419.03
2024-02-19T11:19:24.314Z,100426.88
2024-02-19T11:22:32.060Z,100425.31
2024-02-19T11:25:37.547Z,100425.09
2024-02-19T11:28:41.318Z,100426.72
2024-02-19T11:31:45.439Z,100428.97
2024-02-19T11:34:49.151Z,100433.22
2024-02-19T11:37:52.866Z,100426.91
2024-02-19T11:40:59.070Z,100429.75
2024-02-19T11:44:02.903Z,100425.75
2024-02-19T11:47:07.160Z,100426.28
2024-02-19T11:50:16.513Z,100435.47
2024-02-19T11:53:20.357Z,100429.78
2024-02-19T11:56:25.479Z,100431.97
2024-02-19T11:59:29.288Z,100430.09
2024-02-19T12:02:32.922Z,100428.63
2024-02-19T12:05:36.652Z,100431.47
2024-02-19T12:08:40.737Z,100437.72
2024-02-19T12:11:48.534Z,100441.69
2024-02-19T12:14:53.053Z,100428.88
2024-02-19T12:17:58.665Z,100431.03
2024-02-19T12:21:09.640Z,100434.84
2024-02-19T12:24:14.120Z,100443.22
2024-02-19T12:27:19.529Z,100447.09
2024-02-19T12:30:23.992Z,100448.28
2024-02-19T12:33:28.347Z,100444.66
2024-02-19T12:36:32.147Z,100454.09
2024-02-19T12:39:35.908Z,100448.75
2024-02-19T12:42:41.118Z,100450.25
2024-02-19T12:45:45.027Z,100446.88
2024-02-19T12:48:50.442Z,100445.09
2024-02-19T12:51:55.077Z,100451.97
2024-02-19T12:55:22.969Z,100448.25
2024-02-19T12:58:31.092Z,100450.63
2024-02-19T13:01:43.219Z,100447.63
2024-02-19T13:04:48.887Z,100449.75
2024-02-19T13:07:52.822Z,100450.06
2024-02-19T13:10:56.849Z,100463.84
2024-02-19T13:14:04.170Z,100450.50
2024-02-19T13:17:15.265Z,100457.88
2024-02-19T13:20:20.917Z,100449.41
2024-02-19T13:23:24.780Z,100454.28
2024-02-19T13:26:28.532Z,100455.34
2024-02-19T13:29:33.732Z,100449.81
2024-02-19T13:32:40.146Z,100463.69
2024-02-19T13:35:48.649Z,100463.91
2024-02-19T13:38:56.098Z,100473.78
2024-02-19T13:42:00.318Z,100475.19
2024-02-19T13:45:10.219Z,100479.78
2024-02-19T13:48:14.500Z,100478.59
2024-02-19T13:51:18.320Z,100473.03
2024-02-19T13:54:22.336Z,100475.13
2024-02-19T13:58:28.556Z,100485.28
2024-02-19T14:02:09.730Z,100487.25
2024-02-19T14:05:14.587Z,100483.00
2024-02-19T14:08:20.079Z,100481.44
2024-02-19T14:11:28.529Z,100487.09
2024-02-19T14:14:45.455Z,100487.69
2024-02-19T14:17:50.668Z,100492.09
2024-02-19T14:20:54.452Z,100499.53
2024-02-19T14:23:58.289Z,100490.72
2024-02-19T14:27:04.201Z,100489.06
2024-02-19T14:30:12.816Z,100490.72
2024-02-19T14:33:18.284Z,100486.38
2024-02-19T14:36:22.325Z,100483.19
2024-02-19T14:39:28.271Z,100491.44
2024-02-19T14:42:31.974Z,100488.94
2024-02-19T14:45:35.644Z,100490.25
2024-02-19T14:48:41.872Z,100494.03
2024-02-19T14:51:48.815Z,100494.13
2024-02-19T14:54:55.478Z,100492.84
2024-02-19T14:57:59.343Z,100502.44
2024-02-19T15:01:03.297Z,100503.13
2024-02-19T15:04:12.178Z,100499.16
2024-02-19T15:07:16.255Z,100504.38
2024-02-19T15:10:25.501Z,100504.00
2024-02-19T15:13:29.313Z,100499.69
2024-02-19T15:16:33.293Z,100515.19
2024-02-19T15:19:38.595Z,100516.34
2024-02-19T15:22:42.302Z,100517.13
2024-02-19T15:25:46.110Z,100521.19
2024-02-19T15:28:49.936Z,100521.34
2024-02-19T15:31:53.610Z,100523.56
2024-02-19T15:34:58.804Z,100521.75
2024-02-19T15:38:04.173Z,100517.78
2024-02-19T15:41:12.432Z,100522.44
2024-02-19T15:44:16.262Z,100533.97
2024-02-19T15:47:21.016Z,100530.81
2024-02-19T15:50:28.943Z,100524.63
2024-02-19T15:53:32.705Z,100523.06
2024-02-19T15:56:37.103Z,100529.28
2024-02-19T15:59:40.825Z,100519.22
2024-02-19T16:02:44.582Z,100525.47
2024-02-19T16:06:53.757Z,100525.81
2024-02-19T16:10:30.984Z,100521.53
2024-02-19T16:13:40.090Z,100525.59
2024-02-19T16:16:44.328Z,100516.09
2024-02-19T16:19:48.838Z,100521.69
2024-02-19T16:22:57.139Z,100526.00
2024-02-19T16:26:02.806Z,100536.53
2024-02-19T16:29:06.817Z,100533.91
2024-02-19T16:32:12.137Z,100539.75
2024-02-19T16:35:16.305Z,100532.69
2024-02-19T16:38:24.599Z,100547.09
2024-02-19T16:41:28.392Z,100532.75
2024-02-19T16:44:32.076Z,100543.53
2024-02-19T16:47:36.849Z,100539.63
2024-02-19T16:50:40.830Z,100547.38
2024-02-19T16:53:55.212Z,100546.66
2024-02-19T16:57:01.324Z,100548.25
2024-02-19T17:00:06.948Z,100547.44
2024-02-19T17:03:11.027Z,100551.69
2024-02-19T17:06:15.743Z,100541.22
2024-02-19T17:09:27.411Z,100544.50
2024-02-19T17:12:31.486Z,100536.25
2024-02-19T17:15:38.263Z,100538.78
2024-02-19T17:18:42.302Z,100535.50
2024-02-19T17:21:55.770Z,100541.03
2024-02-19T17:25:01.925Z,100543.81
2024-02-19T17:28:14.121Z,100547.78
2024-02-19T17:31:23.461Z,100537.63
2024-02-19T17:34:33.090Z,100536.31
2024-02-19T17:37:39.753Z,100530.53
2024-02-19T17:40:47.169Z,100537.91
2024-02-19T17:43:54.882Z,100537.19
2024-02-19T17:47:00.063Z,100543.09
2024-02-19T17:50:04.557Z,100538.03
2024-02-19T17:53:08.718Z,100539.56
2024-02-19T17:56:14.982Z,100546.38
2024-02-19T17:59:19.986Z,100539.94
2024-02-19T18:02:27.015Z,100544.59
2024-02-19T18:05:39.174Z,100524.59
2024-02-19T18:08:43.493Z,100535.41
2024-02-19T18:11:49.015Z,100537.94
2024-02-19T18:14:53.847Z,100532.97
2024-02-19T18:17:59.070Z,100537.44
2024-02-19T18:21:03.315Z,100538.44
2024-02-19T18:24:09.609Z,100548.94
2024-02-19T18:27:16.830Z,100544.47
2024-02-19T18:30:21.559Z,100536.69
2024-02-19T18:33:27.063Z,100544.47
2024-02-19T18:36:35.970Z,100539.94
2024-02-19T18:39:45.744Z,100546.63
2024-02-19T18:47:01.316Z,100539.59
2024-02-19T18:50:50.263Z,100543.09
2024-02-19T18:55:01.902Z,100541.41
2024-02-19T18:58:51.275Z,100532.97
2024-02-19T19:01:59.330Z,100536.69
2024-02-19T19:05:06.290Z,100534.78
2024-02-19T19:08:12.495Z,100535.38
2024-02-19T19:11:16.703Z,100530.03
2024-02-19T19:14:25.454Z,100536.44
2024-02-19T19:17:29.778Z,100546.03
2024-02-19T19:20:40.095Z,100540.06
2024-02-19T19:23:46.612Z,100529.81
2024-02-19T19:26:50.771Z,100534.78
2024-02-19T19:29:56.146Z,100536.78
2024-02-19T19:33:00.487Z,100543.56
2024-02-19T19:36:04.412Z,100535.72
2024-02-19T19:39:09.711Z,100543.38
2024-02-19T19:43:16.916Z,100540.53
2024-02-19T19:47:26.307Z,100532.47
2024-02-19T19:50:35.948Z,100540.13
2024-02-19T19:53:39.594Z,100550.13
2024-02-19T19:56:45.478Z,100549.78
2024-02-19T19:59:52.235Z,100542.88
2024-02-19T20:02:58.333Z,100534.91
2024-02-19T20:06:04.219Z,100540.72
2024-02-19T20:13:35.423Z,100535.66
2024-02-19T20:16:47.194Z,100538.31
2024-02-19T20:19:52.701Z,100540.03
2024-02-19T20:28:14.598Z,100524.19
2024-02-19T20:31:18.623Z,100533.22
2024-02-19T20:34:22.429Z,100534.91
2024-02-19T20:37:30.355Z,100535.59
2024-02-19T20:40:35.085Z,100532.06
2024-02-19T20:43:40.171Z,100533.59
2024-02-19T20:46:43.871Z,100533.78
2024-02-19T20:50:30.298Z,100525.06
2024-02-19T20:54:53.325Z,100535.16
2024-02-19T21:07:56.118Z,100551.19
2024-02-19T21:11:04.886Z,100543.31
2024-02-19T21:14:09.975Z,100550.78
2024-02-19T21:17:13.859Z,100550.88
2024-02-19T21:20:21.608Z,100551.66
2024-02-19T21:23:25.880Z,100552.53
2024-02-19T21:26:32.049Z,100556.38
2024-02-19T21:29:38.455Z,100556.81
2024-02-19T21:32:42.129Z,100559.72
2024-02-19T21:35:48.920Z,100564.38
2024-02-19T21:39:41.492Z,100566.34
2024-02-19T21:42:56.698Z,100559.75
2024-02-19T21:47:00.521Z,100571.84
2024-02-19T21:50:25.206Z,100566.19
2024-02-19T21:53:30.435Z,100580.16
2024-02-19T21:56:48.777Z,100577.22
2024-02-19T22:00:52.746Z,100570.53
2024-02-19T22:04:03.596Z,100576.03
2024-02-19T22:11:51.128Z,100574.75
2024-02-19T22:14:59.260Z,100567.41
2024-02-19T22:18:04.008Z,100579.69
2024-02-19T22:21:12.620Z,100581.16
2024-02-19T22:24:17.265Z,100581.94
2024-02-19T22:27:25.738Z,100584.25
2024-02-19T22:30:29.419Z,100582.84
2024-02-19T22:33:33.349Z,100582.97
2024-02-19T22:36:44.950Z,100578.91
2024-02-19T22:40:04.302Z,100581.22
2024-02-19T22:43:33.703Z,100575.13
2024-02-19T22:46:37.423Z,100579.56
2024-02-19T22:49:44.478Z,100578.91
2024-02-19T22:52:51.085Z,100578.28
2024-02-19T22:55:55.180Z,100578.28
2024-02-19T22:59:13.991Z,100580.78
2024-02-19T23:02:22.653Z,100579.59
2024-02-19T23:05:26.749Z,100588.09
2024-02-19T23:08:30.433Z,100575.03
2024-02-19T23:11:34.137Z,100573.94
2024-02-19T23:14:43.538Z,100577.66
2024-02-19T23:17:49.301Z,100573.22
2024-02-19T23:20:53.411Z,100562.13
2024-02-19T23:23:58.140Z,100565.25
2024-02-19T23:27:04.384Z,100564.47
2024-02-19T23:30:15.218Z,100565.88
2024-02-19T23:33:21.679Z,100560.94
2024-02-19T23:36:28.687Z,100565.63
2024-02-19T23:39:32.335Z,100560.38
2024-02-19T23:42:36.172Z,100566.53
2024-02-19T23:45:41.595Z,100555.16
2024-02-19T23:48:52.766Z,100561.22
2024-02-19T23:51:56.551Z,100551.47
2024-02-19T23:55:05.493Z,100544.78
2024-02-19T23:58:12.714Z,100551.03
